sensor_id;sensor_type;location;lat;lon;timestamp;P1;durP1;ratioP1;P2;durP2;ratioP2
15764;SDS011;7983;50.744;7.086;2023-02-15T00:01:41;19.77;;;13.13;;
15764;SDS011;7983;50.744;7.086;2023-02-15T00:04:14;18.40;;;12.57;;
15764;SDS011;7983;50.744;7.086;2023-02-15T00:06:41;22.37;;;13.50;;
15764;SDS011;7983;50.744;7.086;2023-02-15T00:09:06;21.33;;;13.33;;
15764;SDS011;7983;50.744;7.086;2023-02-15T00:11:37;19.43;;;12.47;;
15764;SDS011;7983;50.744;7.086;2023-02-15T00:16:46;18.63;;;11.93;;
15764;SDS011;7983;50.744;7.086;2023-02-15T00:19:12;19.53;;;12.63;;
15764;SDS011;7983;50.744;7.086;2023-02-15T00:21:40;18.73;;;11.93;;
15764;SDS011;7983;50.744;7.086;2023-02-15T00:24:08;15.63;;;10.90;;
15764;SDS011;7983;50.744;7.086;2023-02-15T00:26:35;19.00;;;12.00;;
15764;SDS011;7983;50.744;7.086;2023-02-15T00:29:06;18.40;;;11.73;;
15764;SDS011;7983;50.744;7.086;2023-02-15T00:31:33;16.87;;;10.93;;
15764;SDS011;7983;50.744;7.086;2023-02-15T00:34:03;16.73;;;11.33;;
15764;SDS011;7983;50.744;7.086;2023-02-15T00:36:32;17.93;;;11.83;;
15764;SDS011;7983;50.744;7.086;2023-02-15T00:38:58;17.60;;;11.60;;
15764;SDS011;7983;50.744;7.086;2023-02-15T00:41:24;16.33;;;10.80;;
15764;SDS011;7983;50.744;7.086;2023-02-15T00:43:50;17.73;;;11.17;;
15764;SDS011;7983;50.744;7.086;2023-02-15T00:46:18;16.07;;;10.33;;
15764;SDS011;7983;50.744;7.086;2023-02-15T00:48:43;17.73;;;11.83;;
15764;SDS011;7983;50.744;7.086;2023-02-15T00:51:09;17.77;;;11.57;;
15764;SDS011;7983;50.744;7.086;2023-02-15T00:53:34;17.30;;;11.00;;
15764;SDS011;7983;50.744;7.086;2023-02-15T00:56:00;19.57;;;12.30;;
15764;SDS011;7983;50.744;7.086;2023-02-15T00:58:28;20.27;;;13.20;;
15764;SDS011;7983;50.744;7.086;2023-02-15T01:00:54;16.07;;;10.70;;
15764;SDS011;7983;50.744;7.086;2023-02-15T01:03:20;18.53;;;11.97;;
15764;SDS011;7983;50.744;7.086;2023-02-15T01:05:46;16.97;;;11.20;;
15764;SDS011;7983;50.744;7.086;2023-02-15T01:08:13;18.10;;;12.00;;
15764;SDS011;7983;50.744;7.086;2023-02-15T01:10:38;18.27;;;11.87;;
15764;SDS011;7983;50.744;7.086;2023-02-15T01:13:05;19.23;;;12.50;;
15764;SDS011;7983;50.744;7.086;2023-02-15T01:15:30;16.63;;;11.50;;
15764;SDS011;7983;50.744;7.086;2023-02-15T01:18:01;19.07;;;12.23;;
15764;SDS011;7983;50.744;7.086;2023-02-15T01:20:27;20.17;;;12.47;;
15764;SDS011;7983;50.744;7.086;2023-02-15T01:22:56;18.87;;;12.27;;
15764;SDS011;7983;50.744;7.086;2023-02-15T01:25:23;19.80;;;12.43;;
15764;SDS011;7983;50.744;7.086;2023-02-15T01:27:51;18.37;;;12.00;;
15764;SDS011;7983;50.744;7.086;2023-02-15T01:30:17;19.07;;;12.13;;
15764;SDS011;7983;50.744;7.086;2023-02-15T01:32:45;20.03;;;12.73;;
15764;SDS011;7983;50.744;7.086;2023-02-15T01:35:13;18.40;;;12.63;;
15764;SDS011;7983;50.744;7.086;2023-02-15T01:37:41;21.57;;;14.03;;
15764;SDS011;7983;50.744;7.086;2023-02-15T01:40:08;19.33;;;12.60;;
15764;SDS011;7983;50.744;7.086;2023-02-15T01:42:37;20.13;;;13.57;;
15764;SDS011;7983;50.744;7.086;2023-02-15T01:50:40;20.70;;;13.53;;
15764;SDS011;7983;50.744;7.086;2023-02-15T01:55:55;20.30;;;12.73;;
15764;SDS011;7983;50.744;7.086;2023-02-15T01:58:24;18.47;;;11.70;;
15764;SDS011;7983;50.744;7.086;2023-02-15T02:00:56;18.77;;;11.90;;
15764;SDS011;7983;50.744;7.086;2023-02-15T02:03:36;18.13;;;11.53;;
15764;SDS011;7983;50.744;7.086;2023-02-15T02:06:13;17.60;;;12.13;;
15764;SDS011;7983;50.744;7.086;2023-02-15T02:08:39;16.20;;;10.83;;
15764;SDS011;7983;50.744;7.086;2023-02-15T02:11:11;19.17;;;12.97;;
15764;SDS011;7983;50.744;7.086;2023-02-15T02:13:40;20.97;;;14.07;;
15764;SDS011;7983;50.744;7.086;2023-02-15T02:19:04;20.20;;;11.43;;
15764;SDS011;7983;50.744;7.086;2023-02-15T02:27:23;17.57;;;11.13;;
15764;SDS011;7983;50.744;7.086;2023-02-15T02:44:17;14.07;;;9.30;;
15764;SDS011;7983;50.744;7.086;2023-02-15T02:46:58;17.70;;;10.67;;
15764;SDS011;7983;50.744;7.086;2023-02-15T02:49:30;15.67;;;9.87;;
15764;SDS011;7983;50.744;7.086;2023-02-15T02:52:00;14.40;;;9.47;;
15764;SDS011;7983;50.744;7.086;2023-02-15T02:54:28;14.07;;;10.07;;
15764;SDS011;7983;50.744;7.086;2023-02-15T02:56:54;13.97;;;9.20;;
15764;SDS011;7983;50.744;7.086;2023-02-15T02:59:29;16.23;;;10.60;;
15764;SDS011;7983;50.744;7.086;2023-02-15T03:02:21;16.03;;;10.23;;
15764;SDS011;7983;50.744;7.086;2023-02-15T03:04:53;17.13;;;10.90;;
15764;SDS011;7983;50.744;7.086;2023-02-15T03:07:28;16.50;;;10.53;;
15764;SDS011;7983;50.744;7.086;2023-02-15T03:10:00;16.07;;;10.90;;
15764;SDS011;7983;50.744;7.086;2023-02-15T03:12:28;18.67;;;11.57;;
15764;SDS011;7983;50.744;7.086;2023-02-15T03:17:31;16.03;;;10.50;;
15764;SDS011;7983;50.744;7.086;2023-02-15T03:20:05;16.10;;;10.67;;
15764;SDS011;7983;50.744;7.086;2023-02-15T03:22:38;16.13;;;10.90;;
15764;SDS011;7983;50.744;7.086;2023-02-15T03:25:19;16.60;;;11.03;;
15764;SDS011;7983;50.744;7.086;2023-02-15T03:27:50;20.17;;;12.53;;
15764;SDS011;7983;50.744;7.086;2023-02-15T03:30:25;18.40;;;11.67;;
15764;SDS011;7983;50.744;7.086;2023-02-15T03:32:54;16.13;;;10.37;;
15764;SDS011;7983;50.744;7.086;2023-02-15T03:35:23;17.40;;;11.17;;
15764;SDS011;7983;50.744;7.086;2023-02-15T03:37:55;15.47;;;10.20;;
15764;SDS011;7983;50.744;7.086;2023-02-15T03:40:30;15.93;;;10.30;;
15764;SDS011;7983;50.744;7.086;2023-02-15T03:49:01;17.27;;;10.47;;
15764;SDS011;7983;50.744;7.086;2023-02-15T03:51:36;14.13;;;9.17;;
15764;SDS011;7983;50.744;7.086;2023-02-15T03:54:11;13.07;;;9.10;;
15764;SDS011;7983;50.744;7.086;2023-02-15T03:57:00;13.10;;;8.87;;
15764;SDS011;7983;50.744;7.086;2023-02-15T03:59:48;15.33;;;10.10;;
15764;SDS011;7983;50.744;7.086;2023-02-15T04:02:38;15.87;;;9.77;;
15764;SDS011;7983;50.744;7.086;2023-02-15T04:05:10;16.37;;;10.57;;
15764;SDS011;7983;50.744;7.086;2023-02-15T04:07:38;15.83;;;9.90;;
15764;SDS011;7983;50.744;7.086;2023-02-15T04:10:03;16.33;;;10.40;;
15764;SDS011;7983;50.744;7.086;2023-02-15T04:12:48;15.13;;;10.33;;
15764;SDS011;7983;50.744;7.086;2023-02-15T04:15:15;17.37;;;10.17;;
15764;SDS011;7983;50.744;7.086;2023-02-15T04:18:02;14.83;;;9.93;;
15764;SDS011;7983;50.744;7.086;2023-02-15T04:20:31;14.23;;;9.30;;
15764;SDS011;7983;50.744;7.086;2023-02-15T04:23:15;14.73;;;9.50;;
15764;SDS011;7983;50.744;7.086;2023-02-15T04:25:59;14.90;;;10.03;;
15764;SDS011;7983;50.744;7.086;2023-02-15T04:28:31;16.43;;;10.10;;
15764;SDS011;7983;50.744;7.086;2023-02-15T04:30:59;15.87;;;9.77;;
15764;SDS011;7983;50.744;7.086;2023-02-15T04:33:27;16.03;;;10.17;;
15764;SDS011;7983;50.744;7.086;2023-02-15T04:35:55;16.47;;;10.37;;
15764;SDS011;7983;50.744;7.086;2023-02-15T04:38:21;15.87;;;10.30;;
15764;SDS011;7983;50.744;7.086;2023-02-15T04:40:50;12.43;;;8.90;;
15764;SDS011;7983;50.744;7.086;2023-02-15T04:43:17;15.13;;;9.83;;
15764;SDS011;7983;50.744;7.086;2023-02-15T04:45:47;14.43;;;9.37;;
15764;SDS011;7983;50.744;7.086;2023-02-15T04:48:15;14.13;;;9.37;;
15764;SDS011;7983;50.744;7.086;2023-02-15T04:50:41;15.60;;;10.00;;
15764;SDS011;7983;50.744;7.086;2023-02-15T04:53:09;15.53;;;9.87;;
15764;SDS011;7983;50.744;7.086;2023-02-15T04:55:35;16.13;;;10.57;;
15764;SDS011;7983;50.744;7.086;2023-02-15T04:58:01;16.97;;;10.57;;
15764;SDS011;7983;50.744;7.086;2023-02-15T05:00:27;17.23;;;10.60;;
15764;SDS011;7983;50.744;7.086;2023-02-15T05:02:52;15.27;;;10.10;;
15764;SDS011;7983;50.744;7.086;2023-02-15T05:05:18;17.17;;;10.30;;
15764;SDS011;7983;50.744;7.086;2023-02-15T05:07:48;17.63;;;11.57;;
15764;SDS011;7983;50.744;7.086;2023-02-15T05:10:16;16.17;;;10.13;;
15764;SDS011;7983;50.744;7.086;2023-02-15T05:12:42;14.13;;;9.40;;
15764;SDS011;7983;50.744;7.086;2023-02-15T05:15:07;17.17;;;10.63;;
15764;SDS011;7983;50.744;7.086;2023-02-15T05:17:36;16.40;;;10.93;;
15764;SDS011;7983;50.744;7.086;2023-02-15T05:20:02;16.30;;;10.33;;
15764;SDS011;7983;50.744;7.086;2023-02-15T05:22:28;15.50;;;9.80;;
15764;SDS011;7983;50.744;7.086;2023-02-15T05:24:53;14.23;;;9.27;;
15764;SDS011;7983;50.744;7.086;2023-02-15T05:27:37;15.97;;;9.37;;
15764;SDS011;7983;50.744;7.086;2023-02-15T05:30:21;19.87;;;11.77;;
15764;SDS011;7983;50.744;7.086;2023-02-15T05:32:47;18.67;;;11.67;;
15764;SDS011;7983;50.744;7.086;2023-02-15T05:35:13;15.07;;;10.00;;
15764;SDS011;7983;50.744;7.086;2023-02-15T05:37:40;14.90;;;9.60;;
15764;SDS011;7983;50.744;7.086;2023-02-15T05:40:06;14.90;;;10.20;;
15764;SDS011;7983;50.744;7.086;2023-02-15T05:42:32;17.70;;;12.10;;
15764;SDS011;7983;50.744;7.086;2023-02-15T05:45:00;15.97;;;10.03;;
15764;SDS011;7983;50.744;7.086;2023-02-15T05:47:26;15.40;;;10.50;;
15764;SDS011;7983;50.744;7.086;2023-02-15T05:49:51;14.07;;;9.07;;
15764;SDS011;7983;50.744;7.086;2023-02-15T05:52:17;12.70;;;8.23;;
15764;SDS011;7983;50.744;7.086;2023-02-15T05:54:43;15.30;;;9.80;;
15764;SDS011;7983;50.744;7.086;2023-02-15T05:57:08;15.97;;;10.23;;
15764;SDS011;7983;50.744;7.086;2023-02-15T05:59:36;16.43;;;10.43;;
15764;SDS011;7983;50.744;7.086;2023-02-15T06:02:02;14.10;;;9.30;;
15764;SDS011;7983;50.744;7.086;2023-02-15T06:04:27;15.73;;;10.30;;
15764;SDS011;7983;50.744;7.086;2023-02-15T06:06:55;15.60;;;9.87;;
15764;SDS011;7983;50.744;7.086;2023-02-15T06:09:21;18.80;;;11.50;;
15764;SDS011;7983;50.744;7.086;2023-02-15T06:11:46;17.30;;;11.03;;
15764;SDS011;7983;50.744;7.086;2023-02-15T06:14:12;17.10;;;10.50;;
15764;SDS011;7983;50.744;7.086;2023-02-15T06:16:37;16.20;;;9.67;;
15764;SDS011;7983;50.744;7.086;2023-02-15T06:19:03;15.80;;;10.33;;
15764;SDS011;7983;50.744;7.086;2023-02-15T06:21:29;14.87;;;9.47;;
15764;SDS011;7983;50.744;7.086;2023-02-15T06:23:55;15.90;;;10.40;;
15764;SDS011;7983;50.744;7.086;2023-02-15T06:26:25;13.90;;;9.20;;
15764;SDS011;7983;50.744;7.086;2023-02-15T06:28:53;14.93;;;9.57;;
15764;SDS011;7983;50.744;7.086;2023-02-15T06:31:19;14.33;;;9.30;;
15764;SDS011;7983;50.744;7.086;2023-02-15T06:33:44;14.17;;;8.83;;
15764;SDS011;7983;50.744;7.086;2023-02-15T06:36:15;15.53;;;9.30;;
15764;SDS011;7983;50.744;7.086;2023-02-15T06:38:40;14.13;;;9.20;;
15764;SDS011;7983;50.744;7.086;2023-02-15T06:41:11;15.07;;;9.53;;
15764;SDS011;7983;50.744;7.086;2023-02-15T06:43:36;13.07;;;8.73;;
15764;SDS011;7983;50.744;7.086;2023-02-15T06:46:04;15.83;;;9.97;;
15764;SDS011;7983;50.744;7.086;2023-02-15T06:50:59;15.23;;;9.87;;
15764;SDS011;7983;50.744;7.086;2023-02-15T06:53:24;16.03;;;9.70;;
15764;SDS011;7983;50.744;7.086;2023-02-15T06:55:50;14.23;;;9.47;;
15764;SDS011;7983;50.744;7.086;2023-02-15T06:58:18;13.90;;;8.67;;
15764;SDS011;7983;50.744;7.086;2023-02-15T07:00:43;14.07;;;8.60;;
15764;SDS011;7983;50.744;7.086;2023-02-15T07:03:13;13.67;;;8.17;;
15764;SDS011;7983;50.744;7.086;2023-02-15T07:05:39;14.63;;;9.43;;
15764;SDS011;7983;50.744;7.086;2023-02-15T07:08:05;14.17;;;8.97;;
15764;SDS011;7983;50.744;7.086;2023-02-15T07:10:35;14.20;;;9.07;;
15764;SDS011;7983;50.744;7.086;2023-02-15T07:13:01;13.90;;;8.80;;
15764;SDS011;7983;50.744;7.086;2023-02-15T07:15:29;13.77;;;8.90;;
15764;SDS011;7983;50.744;7.086;2023-02-15T07:17:57;13.63;;;8.90;;
15764;SDS011;7983;50.744;7.086;2023-02-15T07:20:24;14.50;;;9.63;;
15764;SDS011;7983;50.744;7.086;2023-02-15T07:22:52;16.10;;;9.87;;
15764;SDS011;7983;50.744;7.086;2023-02-15T07:25:17;13.63;;;8.87;;
15764;SDS011;7983;50.744;7.086;2023-02-15T07:27:45;13.23;;;9.07;;
15764;SDS011;7983;50.744;7.086;2023-02-15T07:30:12;14.50;;;9.77;;
15764;SDS011;7983;50.744;7.086;2023-02-15T07:32:42;13.87;;;8.90;;
15764;SDS011;7983;50.744;7.086;2023-02-15T07:35:26;14.97;;;9.67;;
15764;SDS011;7983;50.744;7.086;2023-02-15T07:37:52;15.53;;;9.83;;
15764;SDS011;7983;50.744;7.086;2023-02-15T07:40:23;13.33;;;9.13;;
15764;SDS011;7983;50.744;7.086;2023-02-15T07:42:57;13.20;;;8.93;;
15764;SDS011;7983;50.744;7.086;2023-02-15T07:45:26;15.83;;;9.60;;
15764;SDS011;7983;50.744;7.086;2023-02-15T07:47:58;15.83;;;10.13;;
15764;SDS011;7983;50.744;7.086;2023-02-15T07:50:29;14.17;;;9.47;;
15764;SDS011;7983;50.744;7.086;2023-02-15T07:52:57;15.63;;;10.67;;
15764;SDS011;7983;50.744;7.086;2023-02-15T07:55:26;17.10;;;10.47;;
15764;SDS011;7983;50.744;7.086;2023-02-15T07:57:51;16.10;;;9.90;;
15764;SDS011;7983;50.744;7.086;2023-02-15T08:00:19;14.10;;;8.93;;
15764;SDS011;7983;50.744;7.086;2023-02-15T08:02:53;15.17;;;9.83;;
15764;SDS011;7983;50.744;7.086;2023-02-15T08:05:38;15.00;;;10.30;;
15764;SDS011;7983;50.744;7.086;2023-02-15T08:08:05;15.23;;;10.07;;
15764;SDS011;7983;50.744;7.086;2023-02-15T08:10:32;11.83;;;8.30;;
15764;SDS011;7983;50.744;7.086;2023-02-15T08:13:16;13.07;;;9.30;;
15764;SDS011;7983;50.744;7.086;2023-02-15T08:15:51;13.90;;;9.20;;
15764;SDS011;7983;50.744;7.086;2023-02-15T08:18:23;12.23;;;8.17;;
15764;SDS011;7983;50.744;7.086;2023-02-15T08:20:51;11.60;;;8.40;;
15764;SDS011;7983;50.744;7.086;2023-02-15T08:23:17;12.43;;;8.50;;
15764;SDS011;7983;50.744;7.086;2023-02-15T08:25:43;13.63;;;9.03;;
15764;SDS011;7983;50.744;7.086;2023-02-15T08:28:08;12.40;;;8.77;;
15764;SDS011;7983;50.744;7.086;2023-02-15T08:30:34;11.97;;;8.17;;
15764;SDS011;7983;50.744;7.086;2023-02-15T08:33:02;15.23;;;9.70;;
15764;SDS011;7983;50.744;7.086;2023-02-15T08:35:32;14.47;;;9.33;;
15764;SDS011;7983;50.744;7.086;2023-02-15T08:38:03;13.60;;;8.83;;
15764;SDS011;7983;50.744;7.086;2023-02-15T08:40:31;12.33;;;8.47;;
15764;SDS011;7983;50.744;7.086;2023-02-15T08:42:57;14.03;;;9.20;;
15764;SDS011;7983;50.744;7.086;2023-02-15T08:45:22;14.07;;;8.40;;
15764;SDS011;7983;50.744;7.086;2023-02-15T08:47:50;11.57;;;7.67;;
15764;SDS011;7983;50.744;7.086;2023-02-15T08:50:15;11.73;;;7.77;;
15764;SDS011;7983;50.744;7.086;2023-02-15T08:52:44;11.00;;;7.60;;
15764;SDS011;7983;50.744;7.086;2023-02-15T08:55:11;11.70;;;8.10;;
15764;SDS011;7983;50.744;7.086;2023-02-15T08:57:43;13.90;;;9.40;;
15764;SDS011;7983;50.744;7.086;2023-02-15T09:00:10;12.80;;;8.63;;
15764;SDS011;7983;50.744;7.086;2023-02-15T09:02:36;12.63;;;8.57;;
15764;SDS011;7983;50.744;7.086;2023-02-15T09:05:02;15.30;;;10.00;;
15764;SDS011;7983;50.744;7.086;2023-02-15T09:07:28;13.97;;;8.33;;
15764;SDS011;7983;50.744;7.086;2023-02-15T09:09:54;13.23;;;8.73;;
15764;SDS011;7983;50.744;7.086;2023-02-15T09:12:20;12.90;;;8.40;;
15764;SDS011;7983;50.744;7.086;2023-02-15T09:14:48;11.20;;;8.13;;
15764;SDS011;7983;50.744;7.086;2023-02-15T09:17:13;11.20;;;8.30;;
15764;SDS011;7983;50.744;7.086;2023-02-15T09:19:39;14.10;;;8.87;;
15764;SDS011;7983;50.744;7.086;2023-02-15T09:22:07;13.47;;;8.83;;
15764;SDS011;7983;50.744;7.086;2023-02-15T09:24:35;11.53;;;7.90;;
15764;SDS011;7983;50.744;7.086;2023-02-15T09:27:02;13.97;;;9.60;;
15764;SDS011;7983;50.744;7.086;2023-02-15T09:29:28;12.73;;;8.47;;
15764;SDS011;7983;50.744;7.086;2023-02-15T09:31:53;13.87;;;9.37;;
15764;SDS011;7983;50.744;7.086;2023-02-15T09:34:20;13.20;;;8.67;;
15764;SDS011;7983;50.744;7.086;2023-02-15T09:36:49;13.93;;;8.63;;
15764;SDS011;7983;50.744;7.086;2023-02-15T09:39:20;11.33;;;8.30;;
15764;SDS011;7983;50.744;7.086;2023-02-15T10:01:34;9.93;;;7.87;;
15764;SDS011;7983;50.744;7.086;2023-02-15T10:18:23;12.37;;;8.57;;
15764;SDS011;7983;50.744;7.086;2023-02-15T10:26:42;10.23;;;7.77;;
15764;SDS011;7983;50.744;7.086;2023-02-15T10:31:48;16.53;;;10.07;;
15764;SDS011;7983;50.744;7.086;2023-02-15T10:34:42;11.48;;;8.02;;
15764;SDS011;7983;50.744;7.086;2023-02-15T10:45:20;14.15;;;9.65;;
15764;SDS011;7983;50.744;7.086;2023-02-15T10:53:26;11.75;;;9.30;;
15764;SDS011;7983;50.744;7.086;2023-02-15T11:01:30;9.45;;;7.75;;
15764;SDS011;7983;50.744;7.086;2023-02-15T11:04:08;11.23;;;8.57;;
15764;SDS011;7983;50.744;7.086;2023-02-15T11:06:55;11.05;;;8.57;;
15764;SDS011;7983;50.744;7.086;2023-02-15T11:09:29;11.52;;;8.48;;
15764;SDS011;7983;50.744;7.086;2023-02-15T11:12:02;10.60;;;8.18;;
15764;SDS011;7983;50.744;7.086;2023-02-15T11:17:04;10.90;;;8.30;;
15764;SDS011;7983;50.744;7.086;2023-02-15T11:19:50;11.10;;;7.85;;
15764;SDS011;7983;50.744;7.086;2023-02-15T11:22:16;9.75;;;7.80;;
15764;SDS011;7983;50.744;7.086;2023-02-15T11:24:43;12.48;;;9.40;;
15764;SDS011;7983;50.744;7.086;2023-02-15T11:27:16;13.55;;;9.05;;
15764;SDS011;7983;50.744;7.086;2023-02-15T11:29:52;13.60;;;9.93;;
15764;SDS011;7983;50.744;7.086;2023-02-15T11:32:37;12.07;;;9.15;;
15764;SDS011;7983;50.744;7.086;2023-02-15T11:40:46;9.70;;;7.55;;
15764;SDS011;7983;50.744;7.086;2023-02-15T11:43:22;11.07;;;8.30;;
15764;SDS011;7983;50.744;7.086;2023-02-15T11:45:59;11.63;;;8.75;;
15764;SDS011;7983;50.744;7.086;2023-02-15T11:48:25;12.57;;;9.38;;
15764;SDS011;7983;50.744;7.086;2023-02-15T11:50:56;12.23;;;9.70;;
15764;SDS011;7983;50.744;7.086;2023-02-15T11:53:22;11.65;;;8.85;;
15764;SDS011;7983;50.744;7.086;2023-02-15T11:55:50;11.45;;;8.70;;
15764;SDS011;7983;50.744;7.086;2023-02-15T12:04:04;13.50;;;9.30;;
15764;SDS011;7983;50.744;7.086;2023-02-15T12:07:04;13.32;;;9.50;;
15764;SDS011;7983;50.744;7.086;2023-02-15T12:09:40;11.15;;;8.13;;
15764;SDS011;7983;50.744;7.086;2023-02-15T12:12:24;11.98;;;9.32;;
15764;SDS011;7983;50.744;7.086;2023-02-15T12:14:55;12.35;;;8.52;;
15764;SDS011;7983;50.744;7.086;2023-02-15T12:17:29;12.80;;;9.07;;
15764;SDS011;7983;50.744;7.086;2023-02-15T12:20:01;12.82;;;9.25;;
15764;SDS011;7983;50.744;7.086;2023-02-15T12:22:35;11.30;;;9.00;;
15764;SDS011;7983;50.744;7.086;2023-02-15T12:25:21;11.30;;;8.35;;
15764;SDS011;7983;50.744;7.086;2023-02-15T12:27:53;10.15;;;8.35;;
15764;SDS011;7983;50.744;7.086;2023-02-15T12:35:27;11.00;;;8.52;;
15764;SDS011;7983;50.744;7.086;2023-02-15T12:37:57;12.93;;;9.05;;
15764;SDS011;7983;50.744;7.086;2023-02-15T12:40:31;10.82;;;8.73;;
15764;SDS011;7983;50.744;7.086;2023-02-15T12:42:58;11.27;;;8.70;;
15764;SDS011;7983;50.744;7.086;2023-02-15T12:48:19;10.75;;;8.75;;
15764;SDS011;7983;50.744;7.086;2023-02-15T12:50:49;9.82;;;7.85;;
15764;SDS011;7983;50.744;7.086;2023-02-15T12:53:32;9.10;;;7.60;;
15764;SDS011;7983;50.744;7.086;2023-02-15T12:56:04;9.52;;;7.18;;
15764;SDS011;7983;50.744;7.086;2023-02-15T12:58:38;9.00;;;7.30;;
15764;SDS011;7983;50.744;7.086;2023-02-15T13:06:45;9.45;;;7.72;;
15764;SDS011;7983;50.744;7.086;2023-02-15T13:09:20;9.82;;;7.47;;
15764;SDS011;7983;50.744;7.086;2023-02-15T13:12:18;10.45;;;8.07;;
15764;SDS011;7983;50.744;7.086;2023-02-15T13:15:22;11.05;;;8.45;;
15764;SDS011;7983;50.744;7.086;2023-02-15T13:18:00;10.45;;;8.02;;
15764;SDS011;7983;50.744;7.086;2023-02-15T13:20:32;9.15;;;7.30;;
15764;SDS011;7983;50.744;7.086;2023-02-15T13:23:03;10.40;;;7.45;;
15764;SDS011;7983;50.744;7.086;2023-02-15T13:25:44;9.52;;;7.13;;
15764;SDS011;7983;50.744;7.086;2023-02-15T13:28:15;9.32;;;7.38;;
15764;SDS011;7983;50.744;7.086;2023-02-15T13:30:46;9.02;;;7.50;;
15764;SDS011;7983;50.744;7.086;2023-02-15T13:33:27;8.10;;;6.80;;
15764;SDS011;7983;50.744;7.086;2023-02-15T13:57:52;8.70;;;6.53;;
15764;SDS011;7983;50.744;7.086;2023-02-15T14:00:28;11.20;;;7.38;;
15764;SDS011;7983;50.744;7.086;2023-02-15T14:17:18;8.55;;;6.88;;
15764;SDS011;7983;50.744;7.086;2023-02-15T14:20:07;10.93;;;7.90;;
15764;SDS011;7983;50.744;7.086;2023-02-15T14:25:54;10.98;;;8.73;;
15764;SDS011;7983;50.744;7.086;2023-02-15T14:31:15;11.13;;;8.20;;
15764;SDS011;7983;50.744;7.086;2023-02-15T14:33:57;9.48;;;7.38;;
15764;SDS011;7983;50.744;7.086;2023-02-15T14:36:24;10.65;;;7.57;;
15764;SDS011;7983;50.744;7.086;2023-02-15T14:39:08;9.77;;;7.95;;
15764;SDS011;7983;50.744;7.086;2023-02-15T14:42:07;9.38;;;7.40;;
15764;SDS011;7983;50.744;7.086;2023-02-15T14:44:52;13.65;;;7.85;;
15764;SDS011;7983;50.744;7.086;2023-02-15T14:47:51;10.23;;;6.88;;
15764;SDS011;7983;50.744;7.086;2023-02-15T14:50:43;9.48;;;6.93;;
15764;SDS011;7983;50.744;7.086;2023-02-15T14:53:24;10.13;;;7.15;;
15764;SDS011;7983;50.744;7.086;2023-02-15T14:56:05;10.15;;;7.50;;
15764;SDS011;7983;50.744;7.086;2023-02-15T14:58:32;12.07;;;8.40;;
15764;SDS011;7983;50.744;7.086;2023-02-15T15:01:06;10.00;;;7.30;;
15764;SDS011;7983;50.744;7.086;2023-02-15T15:03:43;11.05;;;8.02;;
15764;SDS011;7983;50.744;7.086;2023-02-15T15:06:31;10.07;;;7.70;;
15764;SDS011;7983;50.744;7.086;2023-02-15T15:11:49;10.00;;;7.30;;
15764;SDS011;7983;50.744;7.086;2023-02-15T15:14:37;9.40;;;7.30;;
15764;SDS011;7983;50.744;7.086;2023-02-15T15:17:03;9.75;;;7.28;;
15764;SDS011;7983;50.744;7.086;2023-02-15T15:20:13;10.13;;;7.40;;
15764;SDS011;7983;50.744;7.086;2023-02-15T15:22:23;10.82;;;6.65;;
15764;SDS011;7983;50.744;7.086;2023-02-15T15:32:45;10.48;;;6.55;;
15764;SDS011;7983;50.744;7.086;2023-02-15T15:35:17;9.85;;;7.40;;
15764;SDS011;7983;50.744;7.086;2023-02-15T15:49:38;10.95;;;7.75;;
15764;SDS011;7983;50.744;7.086;2023-02-15T15:52:15;11.50;;;7.93;;
15764;SDS011;7983;50.744;7.086;2023-02-15T15:54:48;10.68;;;7.97;;
15764;SDS011;7983;50.744;7.086;2023-02-15T15:57:25;10.88;;;7.97;;
15764;SDS011;7983;50.744;7.086;2023-02-15T16:00:02;11.05;;;8.07;;
15764;SDS011;7983;50.744;7.086;2023-02-15T16:02:29;10.55;;;7.32;;
15764;SDS011;7983;50.744;7.086;2023-02-15T16:05:05;10.55;;;7.35;;
15764;SDS011;7983;50.744;7.086;2023-02-15T16:07:32;11.57;;;7.60;;
15764;SDS011;7983;50.744;7.086;2023-02-15T16:09:59;9.18;;;6.95;;
15764;SDS011;7983;50.744;7.086;2023-02-15T16:12:36;9.88;;;7.38;;
15764;SDS011;7983;50.744;7.086;2023-02-15T16:15:12;9.23;;;6.50;;
15764;SDS011;7983;50.744;7.086;2023-02-15T16:17:41;9.45;;;7.03;;
15764;SDS011;7983;50.744;7.086;2023-02-15T16:20:16;7.97;;;6.03;;
15764;SDS011;7983;50.744;7.086;2023-02-15T16:22:46;7.70;;;5.82;;
15764;SDS011;7983;50.744;7.086;2023-02-15T16:28:07;9.73;;;6.85;;
15764;SDS011;7983;50.744;7.086;2023-02-15T16:30:38;9.00;;;6.30;;
15764;SDS011;7983;50.744;7.086;2023-02-15T16:33:08;9.95;;;6.78;;
15764;SDS011;7983;50.744;7.086;2023-02-15T16:35:39;9.68;;;6.60;;
15764;SDS011;7983;50.744;7.086;2023-02-15T16:38:18;9.07;;;6.80;;
15764;SDS011;7983;50.744;7.086;2023-02-15T16:40:52;9.38;;;6.07;;
15764;SDS011;7983;50.744;7.086;2023-02-15T16:43:25;8.63;;;6.13;;
15764;SDS011;7983;50.744;7.086;2023-02-15T16:45:58;9.68;;;6.35;;
15764;SDS011;7983;50.744;7.086;2023-02-15T16:48:32;8.30;;;5.85;;
15764;SDS011;7983;50.744;7.086;2023-02-15T16:51:09;10.52;;;6.35;;
15764;SDS011;7983;50.744;7.086;2023-02-15T16:53:43;9.68;;;6.45;;
15764;SDS011;7983;50.744;7.086;2023-02-15T16:56:12;11.90;;;6.57;;
15764;SDS011;7983;50.744;7.086;2023-02-15T16:58:40;9.13;;;6.03;;
15764;SDS011;7983;50.744;7.086;2023-02-15T17:01:08;8.77;;;5.95;;
15764;SDS011;7983;50.744;7.086;2023-02-15T17:03:39;10.65;;;6.75;;
15764;SDS011;7983;50.744;7.086;2023-02-15T17:06:20;11.98;;;5.68;;
15764;SDS011;7983;50.744;7.086;2023-02-15T17:08:53;9.50;;;6.00;;
15764;SDS011;7983;50.744;7.086;2023-02-15T17:11:33;7.65;;;5.43;;
15764;SDS011;7983;50.744;7.086;2023-02-15T17:21:54;7.75;;;5.35;;
15764;SDS011;7983;50.744;7.086;2023-02-15T17:24:43;9.77;;;6.00;;
15764;SDS011;7983;50.744;7.086;2023-02-15T17:29:50;7.50;;;5.57;;
15764;SDS011;7983;50.744;7.086;2023-02-15T17:32:22;8.82;;;5.72;;
15764;SDS011;7983;50.744;7.086;2023-02-15T17:40:22;9.27;;;5.88;;
15764;SDS011;7983;50.744;7.086;2023-02-15T17:42:50;8.40;;;5.72;;
15764;SDS011;7983;50.744;7.086;2023-02-15T17:45:16;10.77;;;7.33;;
15764;SDS011;7983;50.744;7.086;2023-02-15T17:47:46;9.97;;;7.27;;
15764;SDS011;7983;50.744;7.086;2023-02-15T17:50:23;11.18;;;6.88;;
15764;SDS011;7983;50.744;7.086;2023-02-15T17:52:53;8.10;;;5.80;;
15764;SDS011;7983;50.744;7.086;2023-02-15T17:55:21;10.15;;;5.78;;
15764;SDS011;7983;50.744;7.086;2023-02-15T17:58:03;8.73;;;6.15;;
15764;SDS011;7983;50.744;7.086;2023-02-15T18:00:34;8.23;;;5.97;;
15764;SDS011;7983;50.744;7.086;2023-02-15T18:03:23;10.35;;;6.05;;
15764;SDS011;7983;50.744;7.086;2023-02-15T18:06:09;8.53;;;6.07;;
15764;SDS011;7983;50.744;7.086;2023-02-15T18:08:56;8.00;;;5.80;;
15764;SDS011;7983;50.744;7.086;2023-02-15T18:11:40;8.20;;;5.90;;
15764;SDS011;7983;50.744;7.086;2023-02-15T18:14:09;9.00;;;5.90;;
15764;SDS011;7983;50.744;7.086;2023-02-15T18:16:35;8.13;;;5.83;;
15764;SDS011;7983;50.744;7.086;2023-02-15T18:19:04;10.38;;;6.68;;
15764;SDS011;7983;50.744;7.086;2023-02-15T18:21:34;8.88;;;6.10;;
15764;SDS011;7983;50.744;7.086;2023-02-15T18:24:01;8.80;;;5.83;;
15764;SDS011;7983;50.744;7.086;2023-02-15T18:26:29;8.10;;;5.90;;
15764;SDS011;7983;50.744;7.086;2023-02-15T18:28:55;9.10;;;6.30;;
15764;SDS011;7983;50.744;7.086;2023-02-15T18:31:23;9.20;;;6.23;;
15764;SDS011;7983;50.744;7.086;2023-02-15T18:33:49;9.87;;;6.43;;
15764;SDS011;7983;50.744;7.086;2023-02-15T18:36:23;8.07;;;6.20;;
15764;SDS011;7983;50.744;7.086;2023-02-15T18:38:59;8.68;;;6.20;;
15764;SDS011;7983;50.744;7.086;2023-02-15T18:41:27;9.70;;;6.20;;
15764;SDS011;7983;50.744;7.086;2023-02-15T18:43:53;9.93;;;6.83;;
15764;SDS011;7983;50.744;7.086;2023-02-15T18:46:20;9.40;;;6.27;;
15764;SDS011;7983;50.744;7.086;2023-02-15T18:48:53;9.37;;;6.50;;